createdAt,value
2018-12-08T00:00:55.311Z,5.73
2018-12-08T00:01:55.343Z,5.54
2018-12-08T00:02:55.379Z,5.73
2018-12-08T00:03:55.415Z,5.73
2018-12-08T00:04:55.458Z,5.54
2018-12-08T00:05:55.493Z,5.73
2018-12-08T00:06:55.522Z,5.82
2018-12-08T00:07:55.562Z,5.73
2018-12-08T00:08:55.595Z,5.63
2018-12-08T00:09:55.634Z,5.63
2018-12-08T00:10:55.671Z,5.73
2018-12-08T00:11:55.708Z,5.73
2018-12-08T00:12:55.746Z,5.54
2018-12-08T00:13:55.778Z,5.73
2018-12-08T00:14:55.816Z,5.63
2018-12-08T00:15:55.850Z,5.73
2018-12-08T00:16:55.885Z,5.73
2018-12-08T00:17:55.924Z,5.63
2018-12-08T00:18:55.960Z,5.73
2018-12-08T00:19:56.001Z,5.73
2018-12-08T00:20:56.038Z,5.82
2018-12-08T00:21:56.067Z,5.73
2018-12-08T00:22:56.106Z,5.73
2018-12-08T00:23:56.144Z,5.73
2018-12-08T00:24:56.176Z,5.82
2018-12-08T00:25:56.222Z,5.82
2018-12-08T00:26:56.249Z,5.73
2018-12-08T00:27:56.286Z,5.73
2018-12-08T00:28:56.321Z,5.63
2018-12-08T00:29:56.357Z,5.63
2018-12-08T00:30:56.396Z,5.63
2018-12-08T00:31:56.434Z,5.63
2018-12-08T00:32:56.469Z,5.73
2018-12-08T00:33:56.506Z,5.73
2018-12-08T00:34:56.537Z,5.73
2018-12-08T00:35:56.574Z,5.63
2018-12-08T00:36:56.611Z,5.63
2018-12-08T00:37:56.648Z,5.73
2018-12-08T00:38:56.687Z,5.73
2018-12-08T00:39:56.719Z,5.63
2018-12-08T00:40:56.756Z,5.73
2018-12-08T00:41:56.797Z,5.15
2018-12-08T00:42:56.829Z,5.73
2018-12-08T00:43:56.876Z,5.15
2018-12-08T00:44:56.901Z,5.15
2018-12-08T00:45:56.938Z,5.63
2018-12-08T00:46:56.980Z,5.73
2018-12-08T00:47:57.010Z,5.73
2018-12-08T00:48:57.053Z,5.15
2018-12-08T00:49:57.083Z,5.73
2018-12-08T00:50:57.119Z,5.24
2018-12-08T00:51:57.162Z,5.24
2018-12-08T00:52:57.196Z,5.34
2018-12-08T00:53:57.233Z,5.44
2018-12-08T00:54:57.262Z,5.15
2018-12-08T00:55:57.300Z,5.92
2018-12-08T00:56:57.339Z,5.15
2018-12-08T00:57:57.374Z,5.44
2018-12-08T00:58:57.408Z,5.44
2018-12-08T00:59:57.448Z,5.44
2018-12-08T01:00:57.483Z,5.24
2018-12-08T01:01:57.518Z,5.24
2018-12-08T01:02:57.582Z,5.92
2018-12-08T01:03:57.590Z,5.44
2018-12-08T01:04:57.628Z,5.34
2018-12-08T01:05:57.665Z,5.44
2018-12-08T01:06:57.700Z,5.24
2018-12-08T01:07:57.735Z,5.34
2018-12-08T01:08:57.773Z,5.44
2018-12-08T01:09:57.809Z,5.15
2018-12-08T01:10:57.844Z,5.15
2018-12-08T01:11:57.882Z,5.15
2018-12-08T01:12:57.918Z,5.24
2018-12-08T01:13:57.954Z,5.15
2018-12-08T01:14:57.987Z,5.24
2018-12-08T01:15:58.026Z,5.15
2018-12-08T01:16:58.062Z,5.24
2018-12-08T01:17:58.103Z,5.34
2018-12-08T01:18:58.130Z,5.15
2018-12-08T01:19:58.167Z,5.73
2018-12-08T01:20:58.205Z,5.24
2018-12-08T01:21:58.248Z,5.63
2018-12-08T01:22:58.278Z,5.24
2018-12-08T01:23:58.312Z,5.63
2018-12-08T01:24:58.352Z,5.63
2018-12-08T01:25:58.388Z,5.73
2018-12-08T01:26:58.425Z,5.73
2018-12-08T01:27:58.460Z,5.63
2018-12-08T01:28:58.498Z,5.53
2018-12-08T01:29:58.535Z,5.54
2018-12-08T01:30:58.569Z,5.54
2018-12-08T01:31:58.610Z,5.63
2018-12-08T01:32:58.646Z,5.63
2018-12-08T01:33:58.678Z,5.54
2018-12-08T01:34:58.716Z,5.73
2018-12-08T01:35:58.758Z,5.73
2018-12-08T01:36:58.789Z,5.73
2018-12-08T01:37:58.829Z,5.82
2018-12-08T01:38:58.862Z,5.73
2018-12-08T01:39:58.897Z,5.54
2018-12-08T01:40:58.935Z,5.63
2018-12-08T01:41:58.972Z,5.92
2018-12-08T01:42:59.016Z,5.92
2018-12-08T01:43:59.044Z,5.63
2018-12-08T01:44:59.079Z,5.73
2018-12-08T01:45:59.117Z,5.63
2018-12-08T01:46:59.153Z,5.82
2018-12-08T01:47:59.189Z,5.54
2018-12-08T01:48:59.226Z,5.54
2018-12-08T01:49:59.259Z,5.92
2018-12-08T01:50:59.297Z,5.54
2018-12-08T01:51:59.339Z,5.54
2018-12-08T01:52:59.372Z,5.54
2018-12-08T01:53:59.408Z,5.54
2018-12-08T01:54:59.443Z,5.82
2018-12-08T01:55:59.478Z,5.73
2018-12-08T01:56:59.513Z,5.82
2018-12-08T01:57:59.553Z,5.82
2018-12-08T01:58:59.592Z,5.82
2018-12-08T01:59:59.623Z,5.82
2018-12-08T02:00:59.661Z,5.92
2018-12-08T02:01:59.700Z,5.73
2018-12-08T02:02:59.731Z,5.82
2018-12-08T02:03:59.770Z,5.54
2018-12-08T02:04:59.804Z,5.82
2018-12-08T02:05:59.841Z,5.92
2018-12-08T02:06:59.879Z,5.82
2018-12-08T02:07:59.913Z,5.82
2018-12-08T02:08:59.949Z,5.92
2018-12-08T02:09:59.988Z,5.54
2018-12-08T02:11:00.021Z,5.82
2018-12-08T02:12:00.061Z,5.54
2018-12-08T02:13:00.099Z,5.73
2018-12-08T02:14:00.132Z,5.54
2018-12-08T02:15:00.165Z,5.82
2018-12-08T02:16:00.200Z,5.82
2018-12-08T02:17:00.239Z,5.82
2018-12-08T02:18:00.277Z,5.54
2018-12-08T02:19:00.320Z,5.82
2018-12-08T02:20:00.350Z,5.92
2018-12-08T02:21:00.390Z,5.63
2018-12-08T02:22:00.421Z,5.92
2018-12-08T02:23:00.463Z,5.92
2018-12-08T02:24:00.493Z,5.92
2018-12-08T02:25:00.531Z,5.73
2018-12-08T02:26:00.565Z,5.73
2018-12-08T02:27:00.598Z,5.73
2018-12-08T02:28:00.637Z,5.73
2018-12-08T02:29:00.673Z,5.82
2018-12-08T02:30:00.711Z,5.73
2018-12-08T02:31:00.745Z,5.82
2018-12-08T02:32:00.786Z,5.92
2018-12-08T02:33:00.817Z,5.92
2018-12-08T02:34:00.860Z,5.73
2018-12-08T02:35:00.890Z,5.73
2018-12-08T02:36:00.928Z,5.92
2018-12-08T02:37:00.962Z,5.82
2018-12-08T02:38:01.000Z,5.82
2018-12-08T02:39:01.036Z,5.92
2018-12-08T02:40:01.071Z,5.92
2018-12-08T02:41:01.112Z,5.82
2018-12-08T02:42:01.144Z,5.73
2018-12-08T02:43:01.184Z,5.92
2018-12-08T02:44:01.221Z,5.82
2018-12-08T02:45:01.285Z,5.92
2018-12-08T02:46:01.290Z,5.92
2018-12-08T02:47:01.329Z,5.92
2018-12-08T02:48:01.361Z,5.82
2018-12-08T02:49:01.396Z,6.02
2018-12-08T02:50:01.437Z,5.82
2018-12-08T02:51:01.470Z,5.82
2018-12-08T02:52:01.522Z,5.82
2018-12-08T02:53:01.545Z,5.82
2018-12-08T02:54:01.581Z,5.82
2018-12-08T02:55:01.617Z,5.82
2018-12-08T02:56:01.651Z,5.82
2018-12-08T02:57:01.689Z,5.92
2018-12-08T02:58:01.724Z,5.82
2018-12-08T02:59:01.758Z,5.92
2018-12-08T03:00:01.797Z,5.73
2018-12-08T03:01:01.831Z,5.73
2018-12-08T03:02:01.868Z,5.92
2018-12-08T03:03:01.905Z,5.82
2018-12-08T03:04:01.941Z,5.92
2018-12-08T03:05:01.985Z,5.73
2018-12-08T03:06:02.015Z,5.73
2018-12-08T03:07:02.047Z,5.73
2018-12-08T03:08:02.087Z,5.82
2018-12-08T03:09:02.126Z,5.82
2018-12-08T03:10:02.161Z,5.73
2018-12-08T03:11:02.193Z,5.82
2018-12-08T03:12:02.240Z,5.73
2018-12-08T03:13:02.268Z,5.73
2018-12-08T03:14:02.305Z,5.82
2018-12-08T03:15:02.340Z,5.73
2018-12-08T03:16:02.381Z,5.73
2018-12-08T03:17:02.415Z,5.82
2018-12-08T03:18:02.456Z,5.73
2018-12-08T03:19:02.496Z,5.82
2018-12-08T03:20:02.601Z,5.43
2018-12-08T03:21:02.558Z,5.54
2018-12-08T03:22:02.595Z,5.53
2018-12-08T03:23:02.631Z,5.54
2018-12-08T03:24:02.668Z,5.53
2018-12-08T03:25:02.703Z,5.54
2018-12-08T03:26:02.739Z,5.63
2018-12-08T03:27:02.777Z,5.73
2018-12-08T03:28:02.809Z,5.54
2018-12-08T03:29:02.848Z,5.92
2018-12-08T03:30:02.890Z,5.73
2018-12-08T03:31:02.919Z,5.92
2018-12-08T03:32:02.973Z,6.02
2018-12-08T03:33:02.992Z,5.73
2018-12-08T03:34:03.029Z,6.02
2018-12-08T03:35:03.066Z,6.12
2018-12-08T03:36:03.102Z,5.92
2018-12-08T03:37:03.137Z,6.02
2018-12-08T03:38:03.170Z,5.92
2018-12-08T03:39:03.205Z,5.82
2018-12-08T03:40:03.249Z,6.02
2018-12-08T03:41:03.282Z,5.82
2018-12-08T03:42:03.325Z,5.73
2018-12-08T03:43:03.354Z,5.73
2018-12-08T03:44:03.389Z,5.92
2018-12-08T03:45:03.428Z,5.82
2018-12-08T03:46:03.461Z,6.02
2018-12-08T03:47:03.500Z,6.12
2018-12-08T03:48:03.536Z,5.82
2018-12-08T03:49:03.571Z,5.92
2018-12-08T03:50:03.608Z,6.02
2018-12-08T03:51:03.641Z,6.02
2018-12-08T03:52:03.683Z,5.92
2018-12-08T03:53:03.717Z,6.02
2018-12-08T03:54:03.755Z,5.92
2018-12-08T03:55:03.792Z,5.92
2018-12-08T03:56:03.824Z,5.92
2018-12-08T03:57:03.863Z,5.92
2018-12-08T03:58:03.901Z,5.92
2018-12-08T03:59:03.931Z,5.82
2018-12-08T04:00:03.984Z,6.12
2018-12-08T04:01:04.007Z,5.92
2018-12-08T04:02:04.047Z,5.73
2018-12-08T04:03:04.079Z,6.12
2018-12-08T04:04:04.116Z,5.73
2018-12-08T04:05:04.150Z,6.02
2018-12-08T04:06:04.190Z,6.21
2018-12-08T04:07:04.223Z,5.73
2018-12-08T04:08:04.261Z,5.73
2018-12-08T04:09:04.297Z,6.02
2018-12-08T04:10:05.255Z,6.21
2018-12-08T04:11:04.367Z,6.02
2018-12-08T04:12:04.405Z,6.02
2018-12-08T04:13:04.454Z,6.02
2018-12-08T04:14:04.475Z,6.12
2018-12-08T04:15:04.510Z,6.21
2018-12-08T04:16:04.549Z,6.31
2018-12-08T04:17:04.587Z,6.31
2018-12-08T04:18:04.624Z,6.02
2018-12-08T04:19:04.661Z,6.02
2018-12-08T04:20:04.694Z,6.02
2018-12-08T04:21:04.737Z,6.21
2018-12-08T04:22:04.769Z,6.21
2018-12-08T04:23:04.801Z,6.02
2018-12-08T04:24:04.846Z,5.92
2018-12-08T04:25:04.878Z,5.92
2018-12-08T04:26:04.913Z,6.02
2018-12-08T04:27:04.947Z,6.02
2018-12-08T04:28:04.982Z,6.12
2018-12-08T04:29:05.023Z,6.40
2018-12-08T04:30:05.057Z,6.12
2018-12-08T04:31:05.091Z,6.12
2018-12-08T04:32:05.136Z,6.12
2018-12-08T04:33:05.165Z,6.12
2018-12-08T04:34:05.206Z,6.21
2018-12-08T04:35:05.242Z,6.21
2018-12-08T04:36:05.277Z,6.41
2018-12-08T04:37:05.310Z,6.21
2018-12-08T04:38:05.348Z,6.21
2018-12-08T04:39:05.383Z,6.12
2018-12-08T04:40:05.418Z,6.21
2018-12-08T04:41:05.468Z,6.21
2018-12-08T04:42:05.497Z,6.31
2018-12-08T04:43:05.527Z,6.31
2018-12-08T04:44:05.565Z,6.31
2018-12-08T04:45:05.603Z,6.31
2018-12-08T04:46:05.637Z,6.21
2018-12-08T04:47:05.673Z,6.31
2018-12-08T04:48:05.708Z,6.21
2018-12-08T04:49:05.745Z,6.21
2018-12-08T04:50:05.781Z,6.21
2018-12-08T04:51:05.820Z,6.12
2018-12-08T04:52:05.861Z,6.21
2018-12-08T04:53:05.890Z,6.21
2018-12-08T04:54:05.928Z,6.12
2018-12-08T04:55:05.965Z,6.12
2018-12-08T04:56:05.999Z,6.12
2018-12-08T04:57:06.033Z,6.02
2018-12-08T04:58:06.077Z,6.12
2018-12-08T04:59:06.106Z,6.02
2018-12-08T05:00:06.139Z,6.02
2018-12-08T05:01:06.180Z,6.12
2018-12-08T05:02:06.222Z,6.41
2018-12-08T05:03:06.254Z,6.51
2018-12-08T05:04:06.291Z,6.41
2018-12-08T05:05:06.324Z,6.40
2018-12-08T05:06:06.366Z,6.51
2018-12-08T05:07:06.395Z,6.41
2018-12-08T05:08:06.436Z,6.40
2018-12-08T05:09:06.468Z,6.51
2018-12-08T05:10:06.504Z,6.41
2018-12-08T05:11:06.542Z,6.70
2018-12-08T05:12:06.583Z,6.60
2018-12-08T05:13:06.613Z,6.60
2018-12-08T05:14:06.655Z,6.50
2018-12-08T05:15:06.685Z,6.50
2018-12-08T05:16:06.724Z,6.60
2018-12-08T05:17:06.762Z,6.41
2018-12-08T05:18:06.793Z,6.60
2018-12-08T05:19:06.832Z,6.21
2018-12-08T05:20:06.869Z,6.60
2018-12-08T05:21:06.905Z,6.51
2018-12-08T05:22:06.943Z,6.60
2018-12-08T05:23:06.976Z,6.31
2018-12-08T05:24:07.019Z,6.70
2018-12-08T05:25:07.048Z,6.41
2018-12-08T05:26:07.084Z,6.41
2018-12-08T05:27:07.122Z,6.41
2018-12-08T05:28:07.157Z,6.41
2018-12-08T05:29:07.195Z,6.41
2018-12-08T05:30:07.231Z,6.31
2018-12-08T05:31:07.268Z,6.41
2018-12-08T05:32:07.311Z,6.31
2018-12-08T05:33:07.339Z,6.41
2018-12-08T05:34:07.378Z,6.60
2018-12-08T05:35:07.411Z,6.31
2018-12-08T05:36:07.457Z,6.31
2018-12-08T05:37:07.486Z,6.31
2018-12-08T05:38:07.520Z,6.60
2018-12-08T05:39:07.558Z,6.70
2018-12-08T05:40:07.594Z,6.70
2018-12-08T05:41:07.634Z,6.41
2018-12-08T05:42:07.668Z,6.70
2018-12-08T05:43:07.701Z,6.70
2018-12-08T05:44:07.741Z,6.70
2018-12-08T05:45:07.776Z,6.31
2018-12-08T05:46:07.820Z,6.51
2018-12-08T05:47:07.844Z,6.31
2018-12-08T05:48:07.884Z,6.60
2018-12-08T05:49:07.920Z,6.51
2018-12-08T05:50:07.956Z,6.70
2018-12-08T05:51:07.992Z,6.70
2018-12-08T05:52:08.033Z,6.60
2018-12-08T05:53:08.064Z,6.70
2018-12-08T05:54:08.105Z,6.70
2018-12-08T05:55:08.136Z,6.79
2018-12-08T05:56:08.175Z,6.79
2018-12-08T05:57:08.209Z,6.79
2018-12-08T05:58:08.247Z,6.79
2018-12-08T05:59:08.282Z,6.70
2018-12-08T06:00:08.318Z,6.79
2018-12-08T06:01:08.353Z,6.70
2018-12-08T06:02:08.394Z,6.79
2018-12-08T06:03:08.430Z,6.79
2018-12-08T06:04:08.464Z,6.70
2018-12-08T06:05:08.506Z,6.79
2018-12-08T06:06:08.536Z,6.79
2018-12-08T06:07:08.572Z,6.79
2018-12-08T06:08:08.616Z,6.79
2018-12-08T06:09:08.643Z,6.60
2018-12-08T06:10:08.685Z,6.70
2018-12-08T06:11:08.719Z,6.70
2018-12-08T06:12:08.763Z,6.70
2018-12-08T06:13:08.790Z,6.70
2018-12-08T06:14:08.831Z,6.60
2018-12-08T06:15:08.862Z,6.60
2018-12-08T06:16:08.900Z,6.79
2018-12-08T06:17:08.936Z,6.70
2018-12-08T06:18:08.979Z,6.60
2018-12-08T06:19:09.008Z,6.51
2018-12-08T06:20:09.041Z,6.50
2018-12-08T06:21:09.084Z,6.51
2018-12-08T06:22:09.114Z,6.60
2018-12-08T06:23:09.153Z,6.70
2018-12-08T06:24:09.190Z,6.70
2018-12-08T06:25:09.226Z,6.70
2018-12-08T06:26:09.262Z,6.41
2018-12-08T06:27:09.302Z,6.51
2018-12-08T06:28:09.333Z,6.41
2018-12-08T06:29:09.372Z,6.41
2018-12-08T06:30:09.409Z,6.41
2018-12-08T06:31:09.451Z,6.70
2018-12-08T06:32:09.482Z,6.50
2018-12-08T06:33:09.521Z,6.70
2018-12-08T06:34:09.556Z,6.79
2018-12-08T06:35:09.585Z,6.70
2018-12-08T06:36:09.627Z,6.60
2018-12-08T06:37:09.666Z,6.70
2018-12-08T06:38:09.694Z,6.79
2018-12-08T06:39:09.731Z,6.89
2018-12-08T06:40:09.770Z,6.70
2018-12-08T06:41:09.806Z,6.79
2018-12-08T06:42:09.841Z,6.70
2018-12-08T06:43:09.878Z,6.79
2018-12-08T06:44:09.914Z,6.70
2018-12-08T06:45:10.471Z,6.89
2018-12-08T06:46:09.988Z,6.79
2018-12-08T06:47:10.023Z,6.70
2018-12-08T06:48:10.058Z,6.70
2018-12-08T06:49:10.101Z,6.70
2018-12-08T06:50:10.133Z,6.70
2018-12-08T06:51:10.167Z,6.70
2018-12-08T06:52:10.206Z,6.70
2018-12-08T06:53:10.325Z,6.79
2018-12-08T06:54:10.278Z,6.70
2018-12-08T06:55:10.311Z,6.70
2018-12-08T06:56:10.351Z,6.70
2018-12-08T06:57:10.384Z,6.79
2018-12-08T06:58:10.424Z,6.70
2018-12-08T06:59:10.461Z,6.60
2018-12-08T07:00:10.502Z,6.60
2018-12-08T07:01:10.530Z,6.60
2018-12-08T07:02:10.564Z,6.70
2018-12-08T07:03:10.608Z,6.70
2018-12-08T07:04:10.636Z,7.09
2018-12-08T07:05:10.673Z,7.09
2018-12-08T07:06:10.715Z,7.09
2018-12-08T07:07:10.749Z,6.99
2018-12-08T07:08:10.782Z,7.09
2018-12-08T07:09:10.819Z,7.18
2018-12-08T07:10:10.856Z,7.09
2018-12-08T07:11:10.898Z,6.99
2018-12-08T07:12:10.933Z,7.09
2018-12-08T07:13:10.965Z,7.09
2018-12-08T07:14:10.999Z,6.99
2018-12-08T07:15:11.035Z,6.99
2018-12-08T07:16:11.087Z,6.99
2018-12-08T07:17:11.115Z,7.09
2018-12-08T07:18:11.145Z,6.99
2018-12-08T07:19:11.186Z,7.37
2018-12-08T07:20:11.217Z,7.18
2018-12-08T07:21:11.254Z,6.99
2018-12-08T07:22:11.291Z,7.18
2018-12-08T07:23:11.330Z,6.70
2018-12-08T07:24:11.363Z,7.09
2018-12-08T07:25:11.399Z,7.09
2018-12-08T07:26:11.437Z,7.09
2018-12-08T07:27:11.472Z,7.09
2018-12-08T07:28:11.510Z,6.79
2018-12-08T07:29:11.549Z,7.09
2018-12-08T07:30:11.580Z,7.09
2018-12-08T07:31:11.627Z,7.09
2018-12-08T07:32:11.662Z,7.09
2018-12-08T07:33:11.691Z,7.09
2018-12-08T07:34:11.726Z,7.09
2018-12-08T07:35:11.767Z,7.18
2018-12-08T07:36:11.799Z,7.18
2018-12-08T07:37:11.837Z,7.18
2018-12-08T07:38:11.874Z,7.18
2018-12-08T07:39:11.905Z,6.89
2018-12-08T07:40:11.946Z,7.09
2018-12-08T07:41:11.982Z,7.18
2018-12-08T07:42:12.023Z,7.09
2018-12-08T07:43:12.052Z,7.09
2018-12-08T07:44:12.089Z,6.89
2018-12-08T07:45:12.127Z,6.89
2018-12-08T07:46:12.160Z,6.99
2018-12-08T07:47:12.197Z,6.99
2018-12-08T07:48:12.234Z,7.09
2018-12-08T07:49:12.271Z,6.99
2018-12-08T07:50:12.307Z,7.09
2018-12-08T07:51:12.340Z,6.99
2018-12-08T07:52:12.385Z,6.89
2018-12-08T07:53:12.418Z,7.18
2018-12-08T07:54:12.457Z,7.09
2018-12-08T07:55:12.491Z,7.18
2018-12-08T07:56:12.524Z,7.09
2018-12-08T07:57:12.558Z,7.18
2018-12-08T07:58:12.601Z,7.18
2018-12-08T07:59:12.632Z,7.09
2018-12-08T08:00:12.668Z,7.18
2018-12-08T08:01:12.709Z,7.09
2018-12-08T08:02:12.744Z,7.18
2018-12-08T08:03:12.780Z,7.09
2018-12-08T08:04:12.817Z,6.99
2018-12-08T08:05:12.848Z,7.09
2018-12-08T08:06:12.890Z,7.09
2018-12-08T08:07:12.925Z,7.09
2018-12-08T08:08:12.961Z,6.99
2018-12-08T08:09:13.000Z,7.18
2018-12-08T08:10:13.034Z,6.99
2018-12-08T08:11:13.075Z,7.09
2018-12-08T08:12:13.859Z,7.09
2018-12-08T08:13:13.142Z,7.09
2018-12-08T08:14:13.181Z,6.99
2018-12-08T08:15:13.214Z,7.09
2018-12-08T08:16:13.249Z,6.99
2018-12-08T08:17:13.286Z,7.09
2018-12-08T08:18:13.322Z,7.09
2018-12-08T08:19:13.357Z,6.99
2018-12-08T08:20:13.393Z,7.09
2018-12-08T08:21:13.431Z,7.09
2018-12-08T08:22:13.464Z,7.09
2018-12-08T08:23:13.502Z,7.09
2018-12-08T08:24:13.538Z,7.18
2018-12-08T08:25:13.573Z,7.18
2018-12-08T08:26:13.689Z,7.18
2018-12-08T08:27:13.648Z,7.09
2018-12-08T08:28:13.681Z,7.18
2018-12-08T08:29:13.746Z,7.18
2018-12-08T08:30:13.762Z,6.99
2018-12-08T08:31:13.793Z,7.28
2018-12-08T08:32:13.830Z,7.28
2018-12-08T08:33:13.864Z,7.28
2018-12-08T08:34:13.913Z,7.28
2018-12-08T08:35:13.940Z,7.09
2018-12-08T08:36:13.973Z,7.09
2018-12-08T08:37:14.018Z,7.09
2018-12-08T08:38:14.047Z,6.99
2018-12-08T08:39:14.082Z,7.09
2018-12-08T08:40:14.122Z,6.99
2018-12-08T08:41:14.156Z,6.99
2018-12-08T08:42:14.192Z,7.38
2018-12-08T08:43:14.228Z,6.99
2018-12-08T08:44:14.263Z,7.28
2018-12-08T08:45:14.299Z,6.99
2018-12-08T08:46:14.339Z,6.99
2018-12-08T08:47:14.371Z,7.18
2018-12-08T08:48:14.410Z,7.28
2018-12-08T08:49:14.447Z,7.38
2018-12-08T08:50:14.482Z,7.38
2018-12-08T08:51:14.518Z,7.09
2018-12-08T08:52:14.562Z,7.18
2018-12-08T08:53:14.595Z,7.09
2018-12-08T08:54:14.625Z,7.18
2018-12-08T08:55:14.663Z,7.09
2018-12-08T08:56:14.702Z,7.09
2018-12-08T08:57:14.733Z,7.18
2018-12-08T08:58:14.771Z,7.09
2018-12-08T08:59:14.808Z,7.09
2018-12-08T09:00:14.842Z,7.09
2018-12-08T09:01:14.881Z,7.09
2018-12-08T09:02:14.916Z,7.09
2018-12-08T09:03:14.953Z,7.38
2018-12-08T09:04:14.989Z,7.09
2018-12-08T09:05:15.024Z,7.18
2018-12-08T09:06:15.066Z,7.18
2018-12-08T09:07:15.097Z,6.89
2018-12-08T09:08:15.133Z,7.48
2018-12-08T09:09:15.176Z,7.18
2018-12-08T09:10:15.206Z,7.38
2018-12-08T09:11:15.241Z,7.48
2018-12-08T09:12:15.281Z,7.48
2018-12-08T09:13:15.314Z,7.48
2018-12-08T09:14:15.354Z,7.48
2018-12-08T09:15:15.387Z,6.89
2018-12-08T09:16:15.424Z,7.48
2018-12-08T09:17:15.461Z,7.48
2018-12-08T09:18:15.494Z,7.57
2018-12-08T09:19:15.642Z,7.48
2018-12-08T09:20:15.569Z,7.48
2018-12-08T09:21:15.606Z,7.48
2018-12-08T09:22:15.641Z,7.38
2018-12-08T09:23:15.677Z,7.48
2018-12-08T09:24:15.715Z,7.48
2018-12-08T09:25:15.756Z,7.48
2018-12-08T09:26:15.796Z,7.48
2018-12-08T09:27:15.827Z,7.18
2018-12-08T09:28:15.860Z,7.09
2018-12-08T09:29:15.892Z,7.48
2018-12-08T09:30:15.930Z,7.48
2018-12-08T09:31:15.968Z,7.48
2018-12-08T09:32:16.008Z,7.48
2018-12-08T09:33:16.043Z,7.48
2018-12-08T09:34:16.083Z,7.48
2018-12-08T09:35:16.112Z,7.48
2018-12-08T09:36:16.150Z,7.48
2018-12-08T09:37:16.190Z,7.57
2018-12-08T09:38:16.219Z,7.57
2018-12-08T09:39:16.257Z,7.57
2018-12-08T09:40:16.293Z,7.57
2018-12-08T09:41:16.332Z,7.67
2018-12-08T09:42:16.366Z,7.57
2018-12-08T09:43:16.401Z,7.28
2018-12-08T09:45:48.405Z,7.57
2018-12-08T09:46:48.090Z,7.57
2018-12-08T09:48:42.506Z,7.38
2018-12-08T09:49:42.540Z,7.48
2018-12-08T09:51:43.281Z,7.47
2018-12-08T09:52:42.649Z,7.48
2018-12-08T09:53:42.681Z,7.48
2018-12-08T09:54:43.856Z,7.38
2018-12-08T09:55:43.347Z,7.38
2018-12-08T09:56:42.793Z,7.28
2018-12-08T09:58:03.850Z,7.38
2018-12-08T09:58:42.865Z,7.28
2018-12-08T09:59:42.897Z,7.38
2018-12-08T10:00:42.945Z,7.48
2018-12-08T10:01:42.973Z,7.48
2018-12-08T10:02:43.856Z,7.38
2018-12-08T10:04:47.673Z,7.28
2018-12-08T10:05:44.043Z,7.38
2018-12-08T10:06:44.194Z,7.38
2018-12-08T10:07:44.635Z,7.38
2018-12-08T10:08:43.223Z,7.38
2018-12-08T10:11:16.430Z,7.38
2018-12-08T10:12:16.416Z,7.48
2018-12-08T10:13:16.444Z,7.28
2018-12-08T10:14:16.483Z,7.48
2018-12-08T10:15:16.520Z,7.38
2018-12-08T10:16:16.554Z,7.48
2018-12-08T10:17:16.592Z,7.28
2018-12-08T10:18:16.629Z,7.28
2018-12-08T10:19:16.670Z,7.28
2018-12-08T10:20:16.707Z,7.28
2018-12-08T10:21:16.736Z,7.48
2018-12-08T10:22:16.774Z,7.38
2018-12-08T10:23:16.809Z,7.38
2018-12-08T10:24:16.847Z,7.28
2018-12-08T10:25:16.883Z,7.28
2018-12-08T10:26:16.918Z,7.48
2018-12-08T10:27:16.954Z,7.48
2018-12-08T10:28:16.994Z,7.28
2018-12-08T10:29:17.027Z,7.48
2018-12-08T10:30:17.064Z,7.48
2018-12-08T10:31:17.105Z,7.48
2018-12-08T10:32:17.136Z,7.28
2018-12-08T10:33:17.174Z,7.28
2018-12-08T10:34:17.209Z,7.38
2018-12-08T10:35:17.244Z,7.28
2018-12-08T10:36:17.288Z,7.48
2018-12-08T10:37:17.316Z,7.48
2018-12-08T10:38:17.361Z,7.48
2018-12-08T10:39:17.390Z,7.38
2018-12-08T10:40:17.427Z,7.28
2018-12-08T10:41:17.462Z,7.28
2018-12-08T10:42:17.496Z,7.38
2018-12-08T10:43:17.534Z,7.38
2018-12-08T10:44:17.572Z,7.48
2018-12-08T10:45:17.606Z,7.28
2018-12-08T10:46:17.644Z,7.38
2018-12-08T10:47:17.679Z,7.38
2018-12-08T10:48:17.716Z,7.28
2018-12-08T10:49:17.753Z,7.28
2018-12-08T10:50:17.791Z,7.18
2018-12-08T10:51:17.829Z,7.18
2018-12-08T10:52:17.860Z,7.18
2018-12-08T10:53:17.895Z,7.28
2018-12-08T10:54:17.935Z,7.57
2018-12-08T10:55:17.967Z,7.48
2018-12-08T10:56:18.007Z,7.48
2018-12-08T10:57:18.044Z,7.09
2018-12-08T10:58:18.079Z,7.18
2018-12-08T10:59:18.113Z,7.48
2018-12-08T11:00:18.151Z,7.18
2018-12-08T11:01:18.188Z,7.28
2018-12-08T11:02:18.224Z,7.47
2018-12-08T11:03:18.259Z,7.18
2018-12-08T11:04:18.299Z,7.67
2018-12-08T11:05:18.332Z,7.28
2018-12-08T11:06:18.368Z,7.48
2018-12-08T11:07:18.406Z,7.18
2018-12-08T11:08:18.442Z,7.18
2018-12-08T11:09:18.481Z,7.38
2018-12-08T11:10:18.513Z,7.77
2018-12-08T11:11:18.550Z,7.28
2018-12-08T11:12:18.584Z,7.67
2018-12-08T11:13:18.621Z,7.18
2018-12-08T11:14:18.658Z,7.18
2018-12-08T11:15:18.696Z,7.18
2018-12-08T11:16:18.732Z,7.28
2018-12-08T11:17:18.771Z,7.18
2018-12-08T11:18:18.802Z,7.18
2018-12-08T11:19:18.838Z,7.18
2018-12-08T11:20:18.873Z,7.18
2018-12-08T11:21:18.909Z,7.48
2018-12-08T11:22:18.946Z,7.38
2018-12-08T11:23:18.985Z,7.38
2018-12-08T11:24:19.023Z,7.48
2018-12-08T11:25:19.053Z,7.48
2018-12-08T11:26:19.094Z,7.77
2018-12-08T11:27:19.131Z,7.38
2018-12-08T11:28:19.176Z,7.18
2018-12-08T11:29:19.198Z,7.18
2018-12-08T11:30:19.239Z,7.48
2018-12-08T11:31:19.985Z,7.67
2018-12-08T11:32:19.309Z,7.38
2018-12-08T11:33:19.345Z,7.48
2018-12-08T11:34:19.383Z,7.28
2018-12-08T11:35:19.420Z,7.48
2018-12-08T11:36:19.457Z,7.38
2018-12-08T11:37:19.495Z,7.28
2018-12-08T11:38:19.525Z,7.38
2018-12-08T11:39:19.569Z,7.67
2018-12-08T11:40:19.603Z,7.28
2018-12-08T11:41:19.635Z,7.57
2018-12-08T11:42:19.672Z,7.28
2018-12-08T11:43:19.708Z,7.38
2018-12-08T11:44:19.746Z,7.28
2018-12-08T11:45:19.779Z,7.38
2018-12-08T11:46:19.817Z,7.38
2018-12-08T11:47:19.854Z,7.77
2018-12-08T11:48:19.891Z,7.38
2018-12-08T11:49:19.923Z,7.38
2018-12-08T11:50:19.961Z,7.38
2018-12-08T11:51:19.999Z,7.38
2018-12-08T11:52:20.038Z,7.28
2018-12-08T11:53:20.069Z,7.28
2018-12-08T11:54:20.108Z,7.28
2018-12-08T11:55:20.144Z,7.28
2018-12-08T11:56:20.182Z,7.28
2018-12-08T11:57:20.214Z,7.38
2018-12-08T11:58:20.249Z,7.28
2018-12-08T11:59:20.287Z,7.28
2018-12-08T12:00:20.323Z,7.38
2018-12-08T12:01:20.361Z,7.18
2018-12-08T12:02:20.396Z,7.09
2018-12-08T12:03:20.434Z,7.18
2018-12-08T12:04:20.468Z,6.99
2018-12-08T12:05:20.505Z,7.28
2018-12-08T12:06:20.544Z,7.18
2018-12-08T12:07:20.580Z,7.28
2018-12-08T12:08:20.615Z,7.38
2018-12-08T12:09:20.652Z,7.28
2018-12-08T12:10:20.690Z,7.18
2018-12-08T12:11:20.724Z,7.87
2018-12-08T12:12:20.757Z,7.18
2018-12-08T12:13:20.794Z,7.18
2018-12-08T12:14:20.829Z,7.28
2018-12-08T12:15:20.943Z,7.28
2018-12-08T12:16:20.905Z,6.99
2018-12-08T12:17:20.938Z,7.96
2018-12-08T12:18:20.977Z,7.18
2018-12-08T12:19:21.014Z,7.18
2018-12-08T12:20:21.047Z,7.18
2018-12-08T12:21:21.085Z,7.18
2018-12-08T12:22:21.122Z,7.28
2018-12-08T12:23:21.271Z,7.48
2018-12-08T12:24:21.194Z,7.28
2018-12-08T12:25:21.228Z,7.18
2018-12-08T12:26:21.266Z,7.28
2018-12-08T12:27:21.303Z,7.18
2018-12-08T12:28:21.338Z,6.99
2018-12-08T12:29:21.380Z,7.28
2018-12-08T12:30:21.409Z,7.28
2018-12-08T12:31:21.448Z,6.99
2018-12-08T12:32:21.487Z,7.48
2018-12-08T12:33:21.515Z,7.28
2018-12-08T12:34:21.556Z,7.18
2018-12-08T12:35:21.596Z,7.48
2018-12-08T12:36:21.628Z,6.99
2018-12-08T12:37:21.662Z,7.28
2018-12-08T12:38:21.701Z,7.48
2018-12-08T12:39:21.741Z,7.28
2018-12-08T12:40:21.773Z,7.28
2018-12-08T12:41:21.810Z,7.38
2018-12-08T12:42:21.844Z,6.99
2018-12-08T12:43:21.882Z,7.87
2018-12-08T12:44:21.919Z,7.18
2018-12-08T12:45:21.954Z,7.48
2018-12-08T12:46:21.988Z,6.99
2018-12-08T12:47:22.026Z,7.18
2018-12-08T12:48:22.062Z,7.18
2018-12-08T12:49:22.095Z,7.28
2018-12-08T12:50:22.134Z,6.99
2018-12-08T12:51:22.177Z,7.09
2018-12-08T12:52:22.207Z,7.28
2018-12-08T12:53:22.247Z,7.38
2018-12-08T12:54:22.278Z,7.48
2018-12-08T12:55:22.316Z,7.09
2018-12-08T12:56:22.351Z,7.38
2018-12-08T12:57:22.384Z,7.09
2018-12-08T12:58:22.430Z,7.48
2018-12-08T12:59:22.460Z,7.28
2018-12-08T13:00:22.498Z,7.48
2018-12-08T13:01:22.529Z,7.48
2018-12-08T13:02:22.570Z,7.48
2018-12-08T13:03:22.609Z,7.28
2018-12-08T13:04:22.642Z,7.48
2018-12-08T13:05:22.759Z,7.28
2018-12-08T13:06:22.714Z,7.28
2018-12-08T13:07:22.749Z,7.28
2018-12-08T13:08:22.786Z,7.28
2018-12-08T13:09:22.822Z,7.28
2018-12-08T13:10:22.856Z,7.28
2018-12-08T13:11:22.901Z,7.38
2018-12-08T13:12:22.931Z,7.28
2018-12-08T13:13:22.966Z,7.28
2018-12-08T13:14:23.001Z,7.28
2018-12-08T13:15:23.040Z,7.28
2018-12-08T13:16:23.077Z,7.77
2018-12-08T13:17:23.113Z,7.48
2018-12-08T13:18:23.147Z,7.38
2018-12-08T13:19:23.238Z,7.28
2018-12-08T13:20:23.224Z,7.38
2018-12-08T13:21:23.256Z,7.38
2018-12-08T13:22:23.291Z,7.48
2018-12-08T13:23:23.329Z,7.48
2018-12-08T13:24:23.366Z,7.67
2018-12-08T13:25:23.402Z,7.96